Time;durP1;ratioP1;P1;durP2;ratioP2;P2;SDS_P1;SDS_P2;PMS_P1;PMS_P2;Temp;Humidity;BMP_temperature;BMP_pressure;BME280_temperature;BME280_humidity;BME280_pressure;Samples;Min_cycle;Max_cycle;Signal;HPM_P1;HPM_P2
2022/05/28 00:01:48;;;;;;;12.60;5.18;;;;;;;;;;5022596;28;20485;-83
2022/05/28 00:04:34;;;;;;;12.30;4.95;;;;;;;;;;5015571;28;20041;-84
2022/05/28 00:07:20;;;;;;;10.25;4.75;;;;;;;;;;5015506;28;20042;-83
2022/05/28 00:10:07;;;;;;;10.60;5.38;;;;;;;;;;5016160;28;20385;-83
2022/05/28 00:12:52;;;;;;;16.35;5.70;;;;;;;;;;5022306;28;20404;-83
2022/05/28 00:15:38;;;;;;;16.45;5.65;;;;;;;;;;5015734;28;20046;-83
2022/05/28 00:18:23;;;;;;;11.70;4.82;;;;;;;;;;5015681;28;20050;-83
2022/05/28 00:21:11;;;;;;;11.80;5.20;;;;;;;;;;5015437;28;20050;-82
2022/05/28 00:23:58;;;;;;;15.45;5.15;;;;;;;;;;5015366;28;20054;-83
2022/05/28 00:26:44;;;;;;;12.60;5.80;;;;;;;;;;5021932;28;20053;-83
2022/05/28 00:29:29;;;;;;;18.77;5.88;;;;;;;;;;5015145;28;20049;-82
2022/05/28 00:32:15;;;;;;;12.15;4.40;;;;;;;;;;5022370;28;20050;-84
2022/05/28 00:35:05;;;;;;;12.98;6.15;;;;;;;;;;5015175;28;20045;-84
2022/05/28 00:37:50;;;;;;;10.20;5.97;;;;;;;;;;5016752;28;20050;-83
2022/05/28 00:40:35;;;;;;;13.25;6.28;;;;;;;;;;5016708;28;20050;-83
2022/05/28 00:43:22;;;;;;;12.50;6.03;;;;;;;;;;5017563;28;20045;-83
2022/05/28 00:46:14;;;;;;;13.25;5.65;;;;;;;;;;5021365;28;20484;-83
2022/05/28 00:49:09;;;;;;;11.07;5.90;;;;;;;;;;5027857;28;20057;-83
2022/05/28 00:51:59;;;;;;;13.27;6.07;;;;;;;;;;5027820;28;20045;-83
2022/05/28 00:54:47;;;;;;;14.43;6.15;;;;;;;;;;5027558;28;20069;-83
2022/05/28 00:57:32;;;;;;;10.63;5.32;;;;;;;;;;5022475;28;20045;-83
2022/05/28 01:00:21;;;;;;;14.50;5.78;;;;;;;;;;5022577;28;20046;-80
2022/05/28 01:03:23;;;;;;;12.40;5.60;;;;;;;;;;5021483;28;20042;-81
2022/05/28 01:06:20;;;;;;;11.52;5.65;;;;;;;;;;5018473;28;20042;-81
2022/05/28 01:09:12;;;;;;;9.95;5.13;;;;;;;;;;5014028;28;20046;-82
2022/05/28 01:12:04;;;;;;;12.73;5.18;;;;;;;;;;5014857;28;20038;-82
2022/05/28 01:15:11;;;;;;;9.88;5.53;;;;;;;;;;5014444;28;20393;-82
2022/05/28 01:18:12;;;;;;;9.32;5.13;;;;;;;;;;5014245;28;20046;-82
2022/05/28 01:21:05;;;;;;;9.43;4.57;;;;;;;;;;5014470;28;20397;-81
2022/05/28 01:23:52;;;;;;;11.20;5.13;;;;;;;;;;5020509;28;20050;-82
2022/05/28 01:27:01;;;;;;;9.25;4.97;;;;;;;;;;5014535;28;20053;-82
2022/05/28 01:29:49;;;;;;;12.23;4.97;;;;;;;;;;5014654;28;20042;-81
2022/05/28 01:32:36;;;;;;;13.10;4.95;;;;;;;;;;5013907;28;20041;-82
2022/05/28 01:35:23;;;;;;;10.23;4.80;;;;;;;;;;5014442;28;20481;-81
2022/05/28 01:38:11;;;;;;;9.32;5.20;;;;;;;;;;5014175;28;20054;-81
2022/05/28 01:40:57;;;;;;;15.73;5.40;;;;;;;;;;5014213;28;20489;-81
2022/05/28 01:43:45;;;;;;;17.60;4.97;;;;;;;;;;5020551;28;20050;-81
2022/05/28 01:46:33;;;;;;;11.82;4.80;;;;;;;;;;5014221;28;20054;-82
2022/05/28 01:49:21;;;;;;;13.75;5.03;;;;;;;;;;4999357;28;20042;-82
2022/05/28 01:52:08;;;;;;;10.32;5.20;;;;;;;;;;5013705;28;20037;-81
2022/05/28 01:54:56;;;;;;;13.18;5.20;;;;;;;;;;5014536;28;20058;-83
2022/05/28 01:57:41;;;;;;;9.45;4.97;;;;;;;;;;5014613;28;20041;-81
2022/05/28 02:00:26;;;;;;;12.52;5.15;;;;;;;;;;5013508;28;20045;-83
2022/05/28 02:03:11;;;;;;;11.30;4.57;;;;;;;;;;5014198;28;20045;-82
2022/05/28 02:05:57;;;;;;;11.02;4.57;;;;;;;;;;5013939;28;20049;-81
2022/05/28 02:08:45;;;;;;;9.32;4.82;;;;;;;;;;5020878;28;20050;-84
2022/05/28 02:11:42;;;;;;;11.50;4.53;;;;;;;;;;5014365;28;20037;-82
2022/05/28 02:14:59;;;;;;;14.43;4.63;;;;;;;;;;5013678;28;20136;-82
2022/05/28 02:17:53;;;;;;;12.85;4.03;;;;;;;;;;5014208;28;20049;-83
2022/05/28 02:20:51;;;;;;;11.98;4.43;;;;;;;;;;5017093;28;20049;-84
2022/05/28 02:23:49;;;;;;;14.57;4.93;;;;;;;;;;5024251;28;20404;-81
2022/05/28 02:26:43;;;;;;;12.93;4.28;;;;;;;;;;5017705;28;20516;-83
2022/05/28 02:29:30;;;;;;;11.93;4.13;;;;;;;;;;5017812;28;20392;-81
2022/05/28 02:32:22;;;;;;;10.63;4.05;;;;;;;;;;5018949;28;20045;-83
2022/05/28 02:35:09;;;;;;;19.63;4.68;;;;;;;;;;5019349;28;20484;-84
2022/05/28 02:37:56;;;;;;;16.38;4.00;;;;;;;;;;5024907;28;20485;-80
2022/05/28 02:40:41;;;;;;;14.48;3.67;;;;;;;;;;5017852;28;20054;-79
2022/05/28 02:43:26;;;;;;;14.48;4.20;;;;;;;;;;5033340;28;20049;-81
2022/05/28 02:46:12;;;;;;;15.50;3.63;;;;;;;;;;5026419;28;20049;-82
2022/05/28 02:48:58;;;;;;;10.18;4.13;;;;;;;;;;5016844;28;20044;-81
2022/05/28 02:51:43;;;;;;;11.30;4.90;;;;;;;;;;5017333;28;20045;-82
2022/05/28 02:54:29;;;;;;;9.35;4.30;;;;;;;;;;5016936;28;20515;-80
2022/05/28 02:57:14;;;;;;;12.57;4.30;;;;;;;;;;5017133;28;20406;-82
2022/05/28 03:00:00;;;;;;;14.70;4.55;;;;;;;;;;5024096;28;20050;-82
2022/05/28 03:02:45;;;;;;;10.70;4.70;;;;;;;;;;5016760;28;20049;-81
2022/05/28 03:05:31;;;;;;;11.27;5.10;;;;;;;;;;5024144;28;20049;-81
2022/05/28 03:08:18;;;;;;;11.50;5.65;;;;;;;;;;5023484;28;20049;-82
2022/05/28 03:11:03;;;;;;;13.80;5.63;;;;;;;;;;5023756;28;20050;-82
2022/05/28 03:13:48;;;;;;;11.20;5.93;;;;;;;;;;5022528;28;20045;-81
2022/05/28 03:16:33;;;;;;;8.65;5.07;;;;;;;;;;5042925;28;20046;-81
2022/05/28 03:19:18;;;;;;;10.27;5.40;;;;;;;;;;5035600;28;20397;-82
2022/05/28 03:22:04;;;;;;;11.82;5.88;;;;;;;;;;5036787;28;20049;-80
2022/05/28 03:24:49;;;;;;;12.13;5.85;;;;;;;;;;5036275;28;20042;-82
2022/05/28 03:27:35;;;;;;;17.77;6.20;;;;;;;;;;5036432;28;20481;-81
2022/05/28 03:30:20;;;;;;;12.43;5.68;;;;;;;;;;5042652;28;20055;-81
2022/05/28 03:33:06;;;;;;;13.63;6.25;;;;;;;;;;5036485;28;20045;-81
2022/05/28 03:35:51;;;;;;;21.33;10.23;;;;;;;;;;5036453;28;20037;-80
2022/05/28 03:38:37;;;;;;;17.08;9.38;;;;;;;;;;5047703;28;20041;-82
2022/05/28 03:41:23;;;;;;;15.10;9.20;;;;;;;;;;5039120;28;20050;-80
2022/05/28 03:44:11;;;;;;;16.77;8.13;;;;;;;;;;5037659;28;20380;-82
2022/05/28 03:46:55;;;;;;;18.95;8.90;;;;;;;;;;5036189;28;20045;-83
2022/05/28 03:49:42;;;;;;;14.90;7.80;;;;;;;;;;5042539;28;20041;-83
2022/05/28 03:52:28;;;;;;;15.63;8.02;;;;;;;;;;5035327;28;20046;-83
2022/05/28 03:55:13;;;;;;;14.27;8.35;;;;;;;;;;5035493;28;20049;-83
2022/05/28 03:57:59;;;;;;;15.07;9.43;;;;;;;;;;5035521;28;20045;-82
2022/05/28 04:00:44;;;;;;;20.15;9.00;;;;;;;;;;5042394;28;20424;-81
2022/05/28 04:03:30;;;;;;;19.30;9.52;;;;;;;;;;5036005;28;20049;-82
2022/05/28 04:06:16;;;;;;;17.90;7.13;;;;;;;;;;5035385;28;20472;-84
2022/05/28 04:09:02;;;;;;;15.70;7.18;;;;;;;;;;5034562;28;20050;-83
2022/05/28 04:11:48;;;;;;;14.30;7.55;;;;;;;;;;5031273;28;20054;-83
2022/05/28 04:14:33;;;;;;;15.05;7.03;;;;;;;;;;5035058;28;20041;-84
2022/05/28 04:17:20;;;;;;;11.90;6.90;;;;;;;;;;5035095;28;20042;-85
2022/05/28 04:20:08;;;;;;;11.82;6.15;;;;;;;;;;5035054;28;20041;-84
2022/05/28 04:22:53;;;;;;;15.77;6.60;;;;;;;;;;5034495;28;20480;-85
2022/05/28 04:25:39;;;;;;;11.30;6.25;;;;;;;;;;5041653;28;20053;-86
2022/05/28 04:28:30;;;;;;;16.45;7.53;;;;;;;;;;5042111;28;20472;-86
2022/05/28 04:31:20;;;;;;;9.07;5.78;;;;;;;;;;5040594;28;20049;-85
2022/05/28 04:34:13;;;;;;;11.43;5.82;;;;;;;;;;5041405;28;20041;-85
2022/05/28 04:36:59;;;;;;;15.32;5.75;;;;;;;;;;5034822;28;20469;-85
2022/05/28 04:39:45;;;;;;;20.63;5.65;;;;;;;;;;5040762;28;20053;-85
2022/05/28 04:42:30;;;;;;;13.20;5.90;;;;;;;;;;5015431;28;20046;-87
2022/05/28 04:45:15;;;;;;;16.75;5.45;;;;;;;;;;5026843;28;20054;-87
2022/05/28 04:48:00;;;;;;;14.60;4.82;;;;;;;;;;5014815;28;20050;-86
2022/05/28 04:50:49;;;;;;;10.60;4.85;;;;;;;;;;5015143;28;20050;-87
2022/05/28 04:53:34;;;;;;;11.50;5.22;;;;;;;;;;5019640;28;20500;-86
2022/05/28 04:56:20;;;;;;;15.18;5.68;;;;;;;;;;5032149;28;20396;-87
2022/05/28 04:59:06;;;;;;;11.75;5.38;;;;;;;;;;5034651;28;20057;-87
2022/05/28 05:05:34;;;;;;;12.60;5.90;;;;;;;;;;5040261;28;20045;-87
2022/05/28 05:09:09;;;;;;;17.00;5.93;;;;;;;;;;5033837;28;20504;-85
2022/05/28 05:12:20;;;;;;;14.82;5.45;;;;;;;;;;5033103;28;20041;-85
2022/05/28 05:15:06;;;;;;;16.95;6.03;;;;;;;;;;5019723;28;20041;-85
2022/05/28 05:17:59;;;;;;;15.75;6.15;;;;;;;;;;5034619;28;20488;-88
2022/05/28 05:20:45;;;;;;;18.60;5.60;;;;;;;;;;5034071;28;20045;-85
2022/05/28 05:23:30;;;;;;;15.30;5.55;;;;;;;;;;5033578;28;20038;-86
2022/05/28 05:26:19;;;;;;;11.85;5.82;;;;;;;;;;5033952;28;20446;-87
2022/05/28 05:29:05;;;;;;;13.05;5.85;;;;;;;;;;5025815;28;20468;-86
2022/05/28 05:31:51;;;;;;;13.65;5.75;;;;;;;;;;5025926;28;20041;-85
2022/05/28 05:34:48;;;;;;;11.38;5.68;;;;;;;;;;5019685;28;20396;-86
2022/05/28 05:37:34;;;;;;;11.98;5.55;;;;;;;;;;5012967;28;20041;-83
2022/05/28 05:40:20;;;;;;;11.77;5.10;;;;;;;;;;5011925;28;20047;-84
2022/05/28 05:43:45;;;;;;;11.70;5.43;;;;;;;;;;5027281;28;20396;-85
2022/05/28 05:46:42;;;;;;;11.23;4.82;;;;;;;;;;4998570;28;20053;-86
2022/05/28 05:49:58;;;;;;;9.10;4.97;;;;;;;;;;4995273;28;20046;-83
2022/05/28 05:52:51;;;;;;;14.40;5.82;;;;;;;;;;5020396;28;20050;-84
2022/05/28 05:55:44;;;;;;;13.27;5.60;;;;;;;;;;5033976;28;20046;-82
2022/05/28 05:58:46;;;;;;;15.63;5.63;;;;;;;;;;5033967;28;20042;-83
2022/05/28 06:02:37;;;;;;;14.82;5.60;;;;;;;;;;5026664;28;20042;-83
2022/05/28 06:06:15;;;;;;;14.32;5.32;;;;;;;;;;5015591;28;20041;-83
2022/05/28 06:09:40;;;;;;;14.25;4.70;;;;;;;;;;5024848;28;20416;-82
2022/05/28 06:13:03;;;;;;;11.38;4.75;;;;;;;;;;4996470;28;20038;-86
2022/05/28 06:15:48;;;;;;;11.23;4.90;;;;;;;;;;5015504;28;20042;-84
2022/05/28 06:18:34;;;;;;;10.73;5.10;;;;;;;;;;5017303;28;20034;-84
2022/05/28 06:21:19;;;;;;;12.02;4.63;;;;;;;;;;5016492;28;20041;-83
2022/05/28 06:24:05;;;;;;;10.73;4.75;;;;;;;;;;5006952;28;20041;-84
2022/05/28 06:26:53;;;;;;;13.55;4.88;;;;;;;;;;5011538;28;20042;-81
2022/05/28 06:29:38;;;;;;;11.90;5.20;;;;;;;;;;5013678;28;20042;-82
2022/05/28 06:32:24;;;;;;;13.95;4.65;;;;;;;;;;5022508;28;20041;-83
2022/05/28 06:35:09;;;;;;;11.60;5.32;;;;;;;;;;5038923;28;20050;-81
2022/05/28 06:37:55;;;;;;;13.63;6.00;;;;;;;;;;5033181;28;20448;-83
2022/05/28 06:40:40;;;;;;;14.18;5.25;;;;;;;;;;5033098;28;20492;-82
2022/05/28 06:43:27;;;;;;;14.23;5.43;;;;;;;;;;5040234;28;20392;-81
2022/05/28 06:46:13;;;;;;;12.75;4.70;;;;;;;;;;5034015;28;20057;-82
2022/05/28 06:48:58;;;;;;;14.10;5.20;;;;;;;;;;5025842;28;20485;-81
2022/05/28 06:51:44;;;;;;;13.77;4.97;;;;;;;;;;5002442;28;20054;-82
2022/05/28 06:54:29;;;;;;;10.35;4.18;;;;;;;;;;4993550;28;20054;-84
2022/05/28 06:57:15;;;;;;;12.43;5.00;;;;;;;;;;4993709;28;20474;-80
2022/05/28 07:00:00;;;;;;;10.70;4.72;;;;;;;;;;5003316;28;20065;-81
2022/05/28 07:02:47;;;;;;;11.07;4.68;;;;;;;;;;5026996;28;20053;-82
2022/05/28 07:05:32;;;;;;;13.68;5.10;;;;;;;;;;5040540;28;20469;-83
2022/05/28 07:08:17;;;;;;;15.43;4.20;;;;;;;;;;5033986;28;20408;-83
2022/05/28 07:11:07;;;;;;;13.27;4.55;;;;;;;;;;5020643;28;20050;-82
2022/05/28 07:13:53;;;;;;;14.13;6.60;;;;;;;;;;5014766;28;20054;-82
2022/05/28 07:16:38;;;;;;;13.15;5.50;;;;;;;;;;5008599;28;20045;-83
2022/05/28 07:19:22;;;;;;;11.15;4.60;;;;;;;;;;5018640;28;20054;-83
2022/05/28 07:22:08;;;;;;;10.85;5.00;;;;;;;;;;5011030;28;20046;-83
2022/05/28 07:24:53;;;;;;;11.98;5.30;;;;;;;;;;5016424;28;20461;-82
2022/05/28 07:27:38;;;;;;;12.63;5.22;;;;;;;;;;5016291;28;20049;-82
2022/05/28 07:30:24;;;;;;;10.32;4.47;;;;;;;;;;5023286;28;20042;-84
2022/05/28 07:33:11;;;;;;;13.80;5.38;;;;;;;;;;5016140;28;20443;-83
2022/05/28 07:35:58;;;;;;;14.68;5.10;;;;;;;;;;5014781;28;20037;-82
2022/05/28 07:38:44;;;;;;;15.43;5.65;;;;;;;;;;5016096;28;20046;-80
2022/05/28 07:41:32;;;;;;;12.18;4.15;;;;;;;;;;5008044;28;20050;-85
2022/05/28 07:44:18;;;;;;;16.70;4.75;;;;;;;;;;4996960;28;20054;-82
2022/05/28 07:47:09;;;;;;;16.70;4.97;;;;;;;;;;5016038;28;20050;-85
2022/05/28 07:49:55;;;;;;;12.43;4.55;;;;;;;;;;5021476;28;20053;-82
2022/05/28 07:52:40;;;;;;;9.30;4.35;;;;;;;;;;5002583;28;20045;-82
2022/05/28 07:55:26;;;;;;;9.32;4.60;;;;;;;;;;5020079;28;20045;-79
2022/05/28 07:58:14;;;;;;;10.52;4.78;;;;;;;;;;4995227;28;20042;-80
2022/05/28 08:01:00;;;;;;;11.35;4.90;;;;;;;;;;4995533;28;20038;-81
2022/05/28 08:03:46;;;;;;;8.88;4.35;;;;;;;;;;5005138;28;20050;-83
2022/05/28 08:06:32;;;;;;;12.80;5.07;;;;;;;;;;5030630;28;20053;-80
2022/05/28 08:09:17;;;;;;;13.40;5.30;;;;;;;;;;5034554;28;20053;-81
2022/05/28 08:12:03;;;;;;;13.80;5.70;;;;;;;;;;5011163;28;20488;-81
2022/05/28 08:14:48;;;;;;;11.82;5.32;;;;;;;;;;5021353;28;20400;-81
2022/05/28 08:17:34;;;;;;;13.85;5.65;;;;;;;;;;5010923;28;20045;-81
2022/05/28 08:23:08;;;;;;;9.20;5.10;;;;;;;;;;5019497;28;20480;-82
2022/05/28 08:23:25;;;;;;;12.55;5.60;;;;;;;;;;5009861;28;20046;-82
2022/05/28 08:26:13;;;;;;;14.45;5.85;;;;;;;;;;5018356;28;20049;-81
2022/05/28 08:29:03;;;;;;;15.07;6.00;;;;;;;;;;4999263;28;20046;-80
2022/05/28 08:31:49;;;;;;;14.20;5.13;;;;;;;;;;5014737;28;20054;-82
2022/05/28 08:34:35;;;;;;;10.73;5.05;;;;;;;;;;5020990;28;20046;-81
2022/05/28 08:37:22;;;;;;;14.25;4.93;;;;;;;;;;5015097;28;20046;-83
2022/05/28 08:40:08;;;;;;;7.70;3.63;;;;;;;;;;5021612;28;20481;-83
2022/05/28 08:42:53;;;;;;;9.02;4.05;;;;;;;;;;5019223;28;20050;-83
2022/05/28 08:45:50;;;;;;;8.80;4.38;;;;;;;;;;5012134;28;20050;-82
2022/05/28 08:48:53;;;;;;;12.43;4.90;;;;;;;;;;5026779;28;20049;-83
2022/05/28 08:51:49;;;;;;;18.65;4.75;;;;;;;;;;5041619;28;20053;-81
2022/05/28 08:54:36;;;;;;;16.52;5.75;;;;;;;;;;5036235;28;20480;-82
2022/05/28 08:57:21;;;;;;;9.55;4.25;;;;;;;;;;5036049;28;20424;-80
2022/05/28 09:00:40;;;;;;;11.05;5.68;;;;;;;;;;5029832;28;20034;-80
2022/05/28 09:03:59;;;;;;;9.77;6.07;;;;;;;;;;5010584;28;20054;-82
2022/05/28 09:06:58;;;;;;;13.57;6.78;;;;;;;;;;4997075;28;20389;-82
2022/05/28 09:10:26;;;;;;;22.00;8.13;;;;;;;;;;5031286;28;20045;-84
2022/05/28 09:13:18;;;;;;;15.52;7.20;;;;;;;;;;5005603;28;20053;-80
2022/05/28 09:16:21;;;;;;;12.00;6.47;;;;;;;;;;5025854;28;20042;-81
2022/05/28 09:19:29;;;;;;;9.57;5.65;;;;;;;;;;5010947;28;20037;-80
2022/05/28 09:23:13;;;;;;;12.60;6.60;;;;;;;;;;5020861;28;20050;-83
2022/05/28 09:27:00;;;;;;;;;;;;;;;;;;;;;
2022/05/28 09:30:17;;;;;;;8.55;5.00;;;;;;;;;;5012212;28;20406;-83
2022/05/28 09:33:28;;;;;;;11.38;5.20;;;;;;;;;;5013470;28;20045;-83
2022/05/28 09:37:10;;;;;;;10.07;5.45;;;;;;;;;;5014507;28;20054;-81
2022/05/28 09:40:16;;;;;;;10.90;5.13;;;;;;;;;;4965415;28;20043;-81
2022/05/28 09:43:38;;;;;;;10.40;5.43;;;;;;;;;;4973916;28;20059;-80
2022/05/28 09:46:37;;;;;;;14.27;5.60;;;;;;;;;;4971701;28;20051;-80
2022/05/28 09:50:21;;;;;;;14.82;5.40;;;;;;;;;;5006333;28;20050;-81
2022/05/28 09:56:36;;;;;;;10.95;5.82;;;;;;;;;;4958727;28;20050;-83
2022/05/28 09:59:55;;;;;;;13.25;5.72;;;;;;;;;;5014332;28;20058;-81
2022/05/28 10:06:32;;;;;;;13.77;7.55;;;;;;;;;;5019614;28;20042;-81
2022/05/28 10:09:24;;;;;;;;;;;;;;;;;;5006481;28;20042;-82
2022/05/28 10:12:20;;;;;;;25.02;11.77;;;;;;;;;;5005915;28;19913;-81
2022/05/28 10:15:11;;;;;;;31.02;13.68;;;;;;;;;;5012595;28;20037;-81
2022/05/28 10:18:08;;;;;;;20.13;11.02;;;;;;;;;;5005539;28;20173;-81
2022/05/28 10:21:14;;;;;;;32.72;17.50;;;;;;;;;;5006177;28;20050;-81
2022/05/28 10:24:03;;;;;;;27.52;15.80;;;;;;;;;;5019115;28;20485;-83
2022/05/28 10:26:58;;;;;;;31.48;16.00;;;;;;;;;;5019410;28;20049;-82
2022/05/28 10:29:48;;;;;;;33.72;17.73;;;;;;;;;;5013654;28;20038;-81
2022/05/28 10:32:49;;;;;;;42.58;19.65;;;;;;;;;;5005537;28;20041;-81
2022/05/28 10:35:43;;;;;;;27.10;14.23;;;;;;;;;;5006909;28;20050;-82
2022/05/28 10:38:40;;;;;;;12.00;6.50;;;;;;;;;;5005168;28;20046;-82
2022/05/28 10:41:26;;;;;;;11.23;7.85;;;;;;;;;;5008250;28;20050;-81
2022/05/28 10:44:47;;;;;;;10.55;7.28;;;;;;;;;;5016060;28;20045;-83
2022/05/28 10:48:12;;;;;;;14.20;7.50;;;;;;;;;;5009574;28;20053;-82
2022/05/28 10:51:20;;;;;;;13.90;8.15;;;;;;;;;;5008626;28;20042;-81
2022/05/28 10:54:48;;;;;;;14.07;8.27;;;;;;;;;;5010024;28;20049;-81
2022/05/28 10:57:46;;;;;;;15.63;9.90;;;;;;;;;;5008578;28;20045;-82
2022/05/28 11:01:04;;;;;;;14.63;9.77;;;;;;;;;;5023272;28;20409;-84
2022/05/28 11:04:17;;;;;;;12.57;8.85;;;;;;;;;;5022599;28;20057;-83
2022/05/28 11:07:52;;;;;;;22.45;10.93;;;;;;;;;;5017185;28;20046;-84
2022/05/28 11:10:54;;;;;;;17.73;10.93;;;;;;;;;;5008260;28;20053;-83
2022/05/28 11:14:19;;;;;;;19.80;12.75;;;;;;;;;;5019387;28;20062;-85
2022/05/28 11:17:21;;;;;;;20.60;13.25;;;;;;;;;;5023219;28;20401;-81
2022/05/28 11:20:34;;;;;;;14.38;11.55;;;;;;;;;;5023642;28;20058;-85
2022/05/28 11:23:34;;;;;;;15.20;10.77;;;;;;;;;;5024182;28;20050;-86
2022/05/28 11:26:54;;;;;;;12.10;8.75;;;;;;;;;;5016633;28;20481;-84
2022/05/28 11:30:00;;;;;;;14.98;9.98;;;;;;;;;;5016957;28;20054;-83
2022/05/28 11:32:55;;;;;;;12.30;8.98;;;;;;;;;;5016349;28;20046;-86
2022/05/28 11:35:46;;;;;;;10.88;8.18;;;;;;;;;;5017748;28;20042;-86
2022/05/28 11:42:53;;;;;;;11.60;6.35;;;;;;;;;;4953335;28;20050;-85
2022/05/28 11:45:52;;;;;;;12.13;6.70;;;;;;;;;;5024098;28;20045;-82
2022/05/28 11:52:56;;;;;;;8.57;5.85;;;;;;;;;;5042070;28;20042;-84
2022/05/28 11:56:06;;;;;;;13.35;6.13;;;;;;;;;;5042226;28;20053;-83
2022/05/28 12:00:00;;;;;;;11.38;5.68;;;;;;;;;;5028299;28;20042;-83
2022/05/28 12:03:36;;;;;;;5.95;4.35;;;;;;;;;;4955202;29;20039;-83
2022/05/28 12:06:24;;;;;;;6.68;3.80;;;;;;;;;;4990737;28;20042;-83
2022/05/28 12:17:36;;;;;;;7.88;3.45;;;;;;;;;;5032404;28;20042;-84
2022/05/28 12:25:11;;;;;;;6.63;3.50;;;;;;;;;;4976009;28;20041;-81
2022/05/28 12:28:06;;;;;;;5.00;3.28;;;;;;;;;;5027244;28;20404;-84
2022/05/28 12:31:17;;;;;;;10.27;4.18;;;;;;;;;;5035338;28;20049;-82
2022/05/28 12:34:12;;;;;;;12.48;6.15;;;;;;;;;;5034957;28;20053;-83
2022/05/28 12:49:23;;;;;;;62.80;16.02;;;;;;;;;;4957128;28;20051;-83
2022/05/28 13:06:11;;;;;;;14.80;10.43;;;;;;;;;;4988706;28;20034;-83
2022/05/28 13:09:15;;;;;;;17.52;9.32;;;;;;;;;;4994986;28;20050;-86
2022/05/28 13:12:42;;;;;;;11.80;8.68;;;;;;;;;;4982217;28;20046;-86
2022/05/28 13:15:52;;;;;;;12.43;8.55;;;;;;;;;;4989768;28;20046;-85
2022/05/28 13:19:08;;;;;;;11.55;6.43;;;;;;;;;;5001890;28;20062;-84
2022/05/28 13:22:41;;;;;;;7.38;4.40;;;;;;;;;;4986868;28;20050;-84
2022/05/28 13:25:29;;;;;;;9.43;5.63;;;;;;;;;;4981456;28;20054;-85
2022/05/28 13:28:51;;;;;;;6.60;4.63;;;;;;;;;;4994384;28;20058;-82
2022/05/28 13:31:41;;;;;;;8.70;4.20;;;;;;;;;;4994565;28;20046;-82
2022/05/28 13:34:29;;;;;;;5.75;4.40;;;;;;;;;;5001272;28;20057;-83
2022/05/28 13:37:20;;;;;;;17.23;5.43;;;;;;;;;;5001203;28;20046;-82
2022/05/28 13:40:11;;;;;;;11.10;4.75;;;;;;;;;;4994862;28;20042;-81
2022/05/28 13:43:33;;;;;;;8.02;5.40;;;;;;;;;;4993945;28;20053;-82
2022/05/28 13:46:25;;;;;;;9.88;4.82;;;;;;;;;;5007326;28;20049;-81
2022/05/28 13:49:11;;;;;;;8.48;4.85;;;;;;;;;;5034051;28;20049;-81
2022/05/28 13:52:06;;;;;;;4.25;3.65;;;;;;;;;;5034561;28;20049;-80
2022/05/28 13:55:15;;;;;;;;;;;;;;;;;;;;;
2022/05/28 13:58:32;;;;;;;8.98;5.78;;;;;;;;;;5027037;28;20053;-82
2022/05/28 14:01:25;;;;;;;7.18;5.53;;;;;;;;;;5034224;28;20388;-84
2022/05/28 14:04:42;;;;;;;7.13;5.40;;;;;;;;;;5033581;28;20414;-85
2022/05/28 14:07:31;;;;;;;9.75;6.18;;;;;;;;;;5040231;28;20084;-83
2022/05/28 14:10:19;;;;;;;11.43;6.53;;;;;;;;;;5028275;28;20037;-80
2022/05/28 14:13:49;;;;;;;16.02;7.90;;;;;;;;;;5036190;28;20500;-78
2022/05/28 14:16:38;;;;;;;8.43;6.03;;;;;;;;;;5043959;28;20046;-82
2022/05/28 14:19:27;;;;;;;8.85;6.90;;;;;;;;;;5041953;28;20053;-78
2022/05/28 14:22:39;;;;;;;15.95;9.95;;;;;;;;;;5041069;28;20045;-78
2022/05/28 14:25:31;;;;;;;19.95;11.10;;;;;;;;;;5039877;28;20041;-79
2022/05/28 14:28:19;;;;;;;15.75;9.82;;;;;;;;;;5045592;28;20045;-81
2022/05/28 14:31:04;;;;;;;16.00;8.98;;;;;;;;;;5038440;28;20487;-80
2022/05/28 14:33:54;;;;;;;11.80;9.00;;;;;;;;;;5043920;28;20045;-80
2022/05/28 14:36:55;;;;;;;11.38;9.68;;;;;;;;;;5043776;28;20053;-81
2022/05/28 14:39:44;;;;;;;16.05;14.35;;;;;;;;;;5043578;28;20041;-81
2022/05/28 14:42:39;;;;;;;10.68;9.57;;;;;;;;;;5043758;28;20041;-79
2022/05/28 14:45:29;;;;;;;16.80;15.10;;;;;;;;;;5036547;28;20045;-81
2022/05/28 14:48:22;;;;;;;11.30;9.95;;;;;;;;;;5037289;28;20053;-80
2022/05/28 14:51:09;;;;;;;10.43;8.68;;;;;;;;;;5029024;28;20485;-79
2022/05/28 14:53:55;;;;;;;15.25;12.27;;;;;;;;;;5043344;28;20397;-79
2022/05/28 14:56:40;;;;;;;11.35;9.93;;;;;;;;;;5043625;28;20053;-78
2022/05/28 14:59:52;;;;;;;8.35;7.45;;;;;;;;;;5036317;28;20480;-79
2022/05/28 15:02:38;;;;;;;8.32;7.53;;;;;;;;;;5043671;28;20439;-81
2022/05/28 15:05:29;;;;;;;9.80;7.78;;;;;;;;;;5036819;28;20050;-80
2022/05/28 15:08:23;;;;;;;12.93;11.63;;;;;;;;;;5036746;28;20050;-82
2022/05/28 15:11:33;;;;;;;12.73;10.10;;;;;;;;;;5043264;28;20049;-79
2022/05/28 15:14:27;;;;;;;11.32;10.13;;;;;;;;;;5036015;28;20396;-80
2022/05/28 15:17:13;;;;;;;12.83;9.23;;;;;;;;;;5041913;28;20045;-79
2022/05/28 15:19:58;;;;;;;12.38;9.57;;;;;;;;;;5042402;28;20274;-80
2022/05/28 15:22:51;;;;;;;10.80;8.88;;;;;;;;;;5042895;28;20050;-78
2022/05/28 15:25:37;;;;;;;10.73;8.40;;;;;;;;;;5042884;28;20053;-78
2022/05/28 15:28:22;;;;;;;9.40;8.13;;;;;;;;;;5034796;28;20046;-78
2022/05/28 15:31:08;;;;;;;10.80;8.75;;;;;;;;;;5042811;28;20392;-77
2022/05/28 15:33:54;;;;;;;10.60;9.52;;;;;;;;;;5042688;28;20045;-79
2022/05/28 15:39:48;;;;;;;10.50;9.48;;;;;;;;;;5043215;28;20045;-78
2022/05/28 15:42:43;;;;;;;10.45;9.38;;;;;;;;;;5042201;28;20045;-79
2022/05/28 15:45:29;;;;;;;11.70;10.05;;;;;;;;;;5036114;28;20050;-78
2022/05/28 15:48:14;;;;;;;11.45;9.10;;;;;;;;;;5008381;28;20042;-79
2022/05/28 15:51:05;;;;;;;18.17;12.80;;;;;;;;;;5034379;28;20050;-78
2022/05/28 15:53:57;;;;;;;12.60;9.85;;;;;;;;;;5026271;28;20042;-77
2022/05/28 15:56:44;;;;;;;13.48;8.52;;;;;;;;;;5007125;28;20389;-78
2022/05/28 15:59:31;;;;;;;9.77;8.20;;;;;;;;;;5015461;28;20389;-77
2022/05/28 16:02:24;;;;;;;10.07;6.63;;;;;;;;;;5013276;28;20041;-79
2022/05/28 16:05:15;;;;;;;9.32;6.78;;;;;;;;;;5007442;28;20049;-77
2022/05/28 16:08:10;;;;;;;14.10;7.57;;;;;;;;;;5022076;28;20053;-76
2022/05/28 16:10:56;;;;;;;7.93;6.25;;;;;;;;;;5021522;28;20046;-76
2022/05/28 16:13:43;;;;;;;8.43;6.55;;;;;;;;;;5021981;28;20054;-77
2022/05/28 16:16:28;;;;;;;7.65;6.30;;;;;;;;;;5021973;28;20053;-78
2022/05/28 16:19:14;;;;;;;7.60;6.80;;;;;;;;;;5021905;28;20050;-77
2022/05/28 16:22:00;;;;;;;14.27;8.50;;;;;;;;;;5016099;28;20049;-77
2022/05/28 16:24:46;;;;;;;8.98;8.00;;;;;;;;;;5015083;28;20038;-78
2022/05/28 16:27:32;;;;;;;9.27;8.38;;;;;;;;;;5022606;28;20050;-76
2022/05/28 16:30:20;;;;;;;14.93;8.90;;;;;;;;;;5021213;28;20046;-79
2022/05/28 16:33:06;;;;;;;8.30;7.47;;;;;;;;;;5021593;28;20389;-77
2022/05/28 16:35:51;;;;;;;7.22;6.13;;;;;;;;;;5021747;28;20049;-78
2022/05/28 16:38:37;;;;;;;6.32;5.70;;;;;;;;;;5021418;28;20505;-78
2022/05/28 16:41:26;;;;;;;6.18;5.35;;;;;;;;;;5021949;28;20046;-77
2022/05/28 16:44:15;;;;;;;8.88;7.35;;;;;;;;;;5021686;28;20049;-79
2022/05/28 16:47:01;;;;;;;8.93;7.80;;;;;;;;;;5006932;28;20053;-78
2022/05/28 16:49:46;;;;;;;7.95;7.03;;;;;;;;;;5041434;28;20400;-79
2022/05/28 16:52:32;;;;;;;9.95;8.18;;;;;;;;;;5035111;28;20041;-77
2022/05/28 16:55:17;;;;;;;10.45;7.95;;;;;;;;;;5041903;28;20049;-76
2022/05/28 16:58:04;;;;;;;8.98;7.70;;;;;;;;;;5041015;28;20045;-77
2022/05/28 17:00:49;;;;;;;8.07;7.28;;;;;;;;;;5041160;28;20057;-78
2022/05/28 17:03:35;;;;;;;8.90;7.72;;;;;;;;;;5041241;28;20042;-79
2022/05/28 17:06:22;;;;;;;8.82;7.50;;;;;;;;;;5040645;28;20045;-77
2022/05/28 17:09:14;;;;;;;9.00;7.43;;;;;;;;;;5034245;28;20041;-80
2022/05/28 17:12:04;;;;;;;8.95;7.10;;;;;;;;;;5040730;28;20041;-78
2022/05/28 17:14:55;;;;;;;8.15;6.07;;;;;;;;;;5034500;28;20042;-78
2022/05/28 17:17:47;;;;;;;8.57;6.65;;;;;;;;;;5034445;28;20049;-79
2022/05/28 17:20:37;;;;;;;9.75;8.75;;;;;;;;;;5040720;28;20484;-78
2022/05/28 17:23:28;;;;;;;10.00;8.82;;;;;;;;;;5026908;28;20492;-78
2022/05/28 17:26:13;;;;;;;7.78;6.70;;;;;;;;;;5040523;28;20472;-77
2022/05/28 17:28:59;;;;;;;9.70;8.07;;;;;;;;;;5040519;28;20045;-78
2022/05/28 17:31:45;;;;;;;10.55;6.47;;;;;;;;;;5041124;28;20045;-79
2022/05/28 17:34:32;;;;;;;7.93;6.30;;;;;;;;;;5040228;28;20049;-79
2022/05/28 17:37:27;;;;;;;8.05;6.47;;;;;;;;;;5034247;28;20042;-78
2022/05/28 17:40:15;;;;;;;8.63;6.65;;;;;;;;;;5025683;28;20045;-81
2022/05/28 17:43:01;;;;;;;8.23;7.15;;;;;;;;;;5040753;28;20049;-80
2022/05/28 17:45:47;;;;;;;8.30;6.65;;;;;;;;;;5038107;28;20470;-79
2022/05/28 17:48:33;;;;;;;10.43;7.22;;;;;;;;;;5039881;28;20401;-78
2022/05/28 17:51:27;;;;;;;8.88;7.97;;;;;;;;;;5033370;28;20400;-79
2022/05/28 17:54:13;;;;;;;23.02;12.70;;;;;;;;;;5039901;28;20045;-79
2022/05/28 17:56:59;;;;;;;9.57;6.72;;;;;;;;;;5040448;28;20045;-78
2022/05/28 17:59:45;;;;;;;6.65;5.55;;;;;;;;;;5040429;28;20495;-78
2022/05/28 18:02:38;;;;;;;7.90;5.85;;;;;;;;;;5033183;28;20042;-78
2022/05/28 18:05:25;;;;;;;14.65;7.15;;;;;;;;;;5040017;28;20469;-78
2022/05/28 18:08:11;;;;;;;10.38;6.78;;;;;;;;;;5033143;28;20476;-80
2022/05/28 18:11:00;;;;;;;8.68;6.28;;;;;;;;;;5040350;28;20049;-80